sensor_id;sensor_type;location;lat;lon;timestamp;temperature;humidity
65858;SHT31;53776;47.242;18.674;2022-12-07T00:01:38;1.33;93.94
65858;SHT31;53776;47.242;18.674;2022-12-07T00:04:04;1.36;94.05
65858;SHT31;53776;47.242;18.674;2022-12-07T00:06:32;1.44;93.99
65858;SHT31;53776;47.242;18.674;2022-12-07T00:08:57;1.51;94.02
65858;SHT31;53776;47.242;18.674;2022-12-07T00:11:24;1.52;93.96
65858;SHT31;53776;47.242;18.674;2022-12-07T00:13:58;1.58;94.06
65858;SHT31;53776;47.242;18.674;2022-12-07T00:16:28;1.64;94.05
65858;SHT31;53776;47.242;18.674;2022-12-07T00:18:54;1.71;93.99
65858;SHT31;53776;47.242;18.674;2022-12-07T00:21:22;1.68;93.95
65858;SHT31;53776;47.242;18.674;2022-12-07T00:23:49;1.71;94.00
65858;SHT31;53776;47.242;18.674;2022-12-07T00:26:16;1.72;93.89
65858;SHT31;53776;47.242;18.674;2022-12-07T00:28:50;1.75;93.79
65858;SHT31;53776;47.242;18.674;2022-12-07T00:31:18;1.78;93.68
65858;SHT31;53776;47.242;18.674;2022-12-07T00:33:44;1.79;93.72
65858;SHT31;53776;47.242;18.674;2022-12-07T00:36:12;1.75;93.75
65858;SHT31;53776;47.242;18.674;2022-12-07T00:38:38;1.77;93.77
65858;SHT31;53776;47.242;18.674;2022-12-07T00:41:15;1.79;93.76
65858;SHT31;53776;47.242;18.674;2022-12-07T00:43:42;1.78;93.81
65858;SHT31;53776;47.242;18.674;2022-12-07T00:46:07;1.79;93.57
65858;SHT31;53776;47.242;18.674;2022-12-07T00:48:33;1.82;93.49
65858;SHT31;53776;47.242;18.674;2022-12-07T00:50:59;1.68;93.50
65858;SHT31;53776;47.242;18.674;2022-12-07T00:53:27;1.68;93.45
65858;SHT31;53776;47.242;18.674;2022-12-07T00:55:52;1.65;93.36
65858;SHT31;53776;47.242;18.674;2022-12-07T00:58:18;1.64;93.18
65858;SHT31;53776;47.242;18.674;2022-12-07T01:00:44;1.64;93.20
65858;SHT31;53776;47.242;18.674;2022-12-07T01:03:11;1.57;93.05
65858;SHT31;53776;47.242;18.674;2022-12-07T01:05:37;1.51;93.01
65858;SHT31;53776;47.242;18.674;2022-12-07T01:08:03;1.36;93.00
65858;SHT31;53776;47.242;18.674;2022-12-07T01:10:29;1.40;92.82
65858;SHT31;53776;47.242;18.674;2022-12-07T01:12:56;1.26;92.91
65858;SHT31;53776;47.242;18.674;2022-12-07T01:15:21;1.23;92.98
65858;SHT31;53776;47.242;18.674;2022-12-07T01:17:47;1.15;92.98
65858;SHT31;53776;47.242;18.674;2022-12-07T01:20:13;1.06;93.09
65858;SHT31;53776;47.242;18.674;2022-12-07T01:22:40;1.02;93.19
65858;SHT31;53776;47.242;18.674;2022-12-07T01:25:06;1.00;93.49
65858;SHT31;53776;47.242;18.674;2022-12-07T01:27:33;1.00;93.53
65858;SHT31;53776;47.242;18.674;2022-12-07T01:29:58;1.03;93.53
65858;SHT31;53776;47.242;18.674;2022-12-07T01:32:24;1.13;93.59
65858;SHT31;53776;47.242;18.674;2022-12-07T01:34:49;1.19;93.64
65858;SHT31;53776;47.242;18.674;2022-12-07T01:37:14;1.23;93.72
65858;SHT31;53776;47.242;18.674;2022-12-07T01:39:40;1.31;93.79
65858;SHT31;53776;47.242;18.674;2022-12-07T01:42:10;1.37;93.78
65858;SHT31;53776;47.242;18.674;2022-12-07T01:47:39;1.38;93.73
65858;SHT31;53776;47.242;18.674;2022-12-07T01:50:05;1.41;93.75
65858;SHT31;53776;47.242;18.674;2022-12-07T01:52:33;1.51;93.66
65858;SHT31;53776;47.242;18.674;2022-12-07T01:55:04;1.61;93.55
65858;SHT31;53776;47.242;18.674;2022-12-07T01:57:33;1.50;93.43
65858;SHT31;53776;47.242;18.674;2022-12-07T02:00:00;1.55;93.54
65858;SHT31;53776;47.242;18.674;2022-12-07T02:02:31;1.54;93.51
65858;SHT31;53776;47.242;18.674;2022-12-07T02:05:00;1.55;93.39
65858;SHT31;53776;47.242;18.674;2022-12-07T02:07:27;1.51;93.60
65858;SHT31;53776;47.242;18.674;2022-12-07T02:09:53;1.54;93.64
65858;SHT31;53776;47.242;18.674;2022-12-07T02:12:19;1.52;93.54
65858;SHT31;53776;47.242;18.674;2022-12-07T02:14:45;1.61;93.52
65858;SHT31;53776;47.242;18.674;2022-12-07T02:25:21;1.44;93.47
65858;SHT31;53776;47.242;18.674;2022-12-07T02:30:55;1.47;93.36
65858;SHT31;53776;47.242;18.674;2022-12-07T02:33:42;1.50;93.41
65858;SHT31;53776;47.242;18.674;2022-12-07T02:36:14;1.51;93.32
65858;SHT31;53776;47.242;18.674;2022-12-07T02:38:55;1.62;93.30
65858;SHT31;53776;47.242;18.674;2022-12-07T02:41:32;1.67;93.20
65858;SHT31;53776;47.242;18.674;2022-12-07T02:44:02;1.74;93.23
65858;SHT31;53776;47.242;18.674;2022-12-07T02:46:32;1.82;93.09
65858;SHT31;53776;47.242;18.674;2022-12-07T02:48:59;1.86;93.06
65858;SHT31;53776;47.242;18.674;2022-12-07T02:51:25;1.86;93.10
65858;SHT31;53776;47.242;18.674;2022-12-07T02:53:51;1.88;93.07
65858;SHT31;53776;47.242;18.674;2022-12-07T03:15:49;2.02;93.17
65858;SHT31;53776;47.242;18.674;2022-12-07T03:18:22;1.99;93.19
65858;SHT31;53776;47.242;18.674;2022-12-07T03:20:51;1.91;93.14
65858;SHT31;53776;47.242;18.674;2022-12-07T03:23:18;1.82;93.07
65858;SHT31;53776;47.242;18.674;2022-12-07T03:25:50;1.74;93.25
65858;SHT31;53776;47.242;18.674;2022-12-07T03:28:19;1.69;93.23
65858;SHT31;53776;47.242;18.674;2022-12-07T03:31:28;1.71;93.35
65858;SHT31;53776;47.242;18.674;2022-12-07T03:34:01;1.71;93.45
65858;SHT31;53776;47.242;18.674;2022-12-07T03:36:48;1.77;93.46
65858;SHT31;53776;47.242;18.674;2022-12-07T03:41:46;1.79;93.46
65858;SHT31;53776;47.242;18.674;2022-12-07T03:44:12;1.78;93.52
65858;SHT31;53776;47.242;18.674;2022-12-07T03:47:29;1.86;93.51
65858;SHT31;53776;47.242;18.674;2022-12-07T03:49:58;1.79;93.51
65858;SHT31;53776;47.242;18.674;2022-12-07T03:52:53;1.85;93.52
65858;SHT31;53776;47.242;18.674;2022-12-07T03:55:25;1.88;93.50
65858;SHT31;53776;47.242;18.674;2022-12-07T03:57:55;1.86;93.49
65858;SHT31;53776;47.242;18.674;2022-12-07T04:00:21;1.88;93.59
65858;SHT31;53776;47.242;18.674;2022-12-07T04:02:46;1.98;93.66
65858;SHT31;53776;47.242;18.674;2022-12-07T04:05:12;1.95;93.77
65858;SHT31;53776;47.242;18.674;2022-12-07T04:07:39;2.03;93.75
65858;SHT31;53776;47.242;18.674;2022-12-07T04:10:06;2.03;93.60
65858;SHT31;53776;47.242;18.674;2022-12-07T04:12:31;2.13;93.52
65858;SHT31;53776;47.242;18.674;2022-12-07T04:14:57;2.08;93.42
65858;SHT31;53776;47.242;18.674;2022-12-07T04:17:22;2.13;93.47
65858;SHT31;53776;47.242;18.674;2022-12-07T04:19:47;2.15;93.26
65858;SHT31;53776;47.242;18.674;2022-12-07T04:22:13;2.10;93.16
65858;SHT31;53776;47.242;18.674;2022-12-07T04:24:38;2.20;93.05
65858;SHT31;53776;47.242;18.674;2022-12-07T04:27:04;2.36;93.09
65858;SHT31;53776;47.242;18.674;2022-12-07T04:29:29;2.33;92.91
65858;SHT31;53776;47.242;18.674;2022-12-07T04:31:55;2.22;92.77
65858;SHT31;53776;47.242;18.674;2022-12-07T04:34:20;2.16;92.82
65858;SHT31;53776;47.242;18.674;2022-12-07T04:36:47;2.13;92.94
65858;SHT31;53776;47.242;18.674;2022-12-07T04:39:26;2.19;92.82
65858;SHT31;53776;47.242;18.674;2022-12-07T04:41:52;2.29;92.73
65858;SHT31;53776;47.242;18.674;2022-12-07T04:44:19;2.29;92.60
65858;SHT31;53776;47.242;18.674;2022-12-07T04:46:45;2.30;92.51
65858;SHT31;53776;47.242;18.674;2022-12-07T04:49:11;2.30;92.37
65858;SHT31;53776;47.242;18.674;2022-12-07T04:51:37;2.46;92.42
65858;SHT31;53776;47.242;18.674;2022-12-07T04:54:03;2.44;92.34
65858;SHT31;53776;47.242;18.674;2022-12-07T04:56:29;2.56;92.35
65858;SHT31;53776;47.242;18.674;2022-12-07T04:58:55;2.38;92.22
65858;SHT31;53776;47.242;18.674;2022-12-07T05:01:21;2.27;92.49
65858;SHT31;53776;47.242;18.674;2022-12-07T05:03:47;2.22;92.49
65858;SHT31;53776;47.242;18.674;2022-12-07T05:06:13;2.16;92.59
65858;SHT31;53776;47.242;18.674;2022-12-07T05:08:38;2.36;92.34
65858;SHT31;53776;47.242;18.674;2022-12-07T05:11:05;2.41;92.16
65858;SHT31;53776;47.242;18.674;2022-12-07T05:13:32;2.27;92.40
65858;SHT31;53776;47.242;18.674;2022-12-07T05:15:58;2.26;92.41
65858;SHT31;53776;47.242;18.674;2022-12-07T05:18:23;2.41;92.29
65858;SHT31;53776;47.242;18.674;2022-12-07T05:20:49;2.51;92.07
65858;SHT31;53776;47.242;18.674;2022-12-07T05:23:16;2.48;92.14
65858;SHT31;53776;47.242;18.674;2022-12-07T05:25:42;2.51;92.11
65858;SHT31;53776;47.242;18.674;2022-12-07T05:28:07;2.58;92.10
65858;SHT31;53776;47.242;18.674;2022-12-07T05:30:32;2.60;91.98
65858;SHT31;53776;47.242;18.674;2022-12-07T05:32:58;2.68;91.91
65858;SHT31;53776;47.242;18.674;2022-12-07T05:35:24;2.56;91.80
65858;SHT31;53776;47.242;18.674;2022-12-07T05:37:49;2.64;91.74
65858;SHT31;53776;47.242;18.674;2022-12-07T05:40:15;2.67;91.64
65858;SHT31;53776;47.242;18.674;2022-12-07T05:42:41;2.61;91.60
65858;SHT31;53776;47.242;18.674;2022-12-07T05:45:07;2.58;91.50
65858;SHT31;53776;47.242;18.674;2022-12-07T05:47:33;2.64;91.36
65858;SHT31;53776;47.242;18.674;2022-12-07T05:49:58;2.44;91.57
65858;SHT31;53776;47.242;18.674;2022-12-07T05:52:24;2.36;91.83
65858;SHT31;53776;47.242;18.674;2022-12-07T05:54:49;2.30;92.02
65858;SHT31;53776;47.242;18.674;2022-12-07T05:57:15;2.38;92.03
65858;SHT31;53776;47.242;18.674;2022-12-07T05:59:40;2.36;92.12
65858;SHT31;53776;47.242;18.674;2022-12-07T06:02:08;2.36;92.12
65858;SHT31;53776;47.242;18.674;2022-12-07T06:04:36;2.37;92.07
65858;SHT31;53776;47.242;18.674;2022-12-07T06:07:02;2.37;92.06
65858;SHT31;53776;47.242;18.674;2022-12-07T06:09:28;2.46;92.03
65858;SHT31;53776;47.242;18.674;2022-12-07T06:11:54;2.44;91.92
65858;SHT31;53776;47.242;18.674;2022-12-07T06:14:39;2.44;91.85
65858;SHT31;53776;47.242;18.674;2022-12-07T06:17:05;2.44;91.82
65858;SHT31;53776;47.242;18.674;2022-12-07T06:19:30;2.47;91.82
65858;SHT31;53776;47.242;18.674;2022-12-07T06:21:56;2.48;91.71
65858;SHT31;53776;47.242;18.674;2022-12-07T06:24:22;2.53;91.67
65858;SHT31;53776;47.242;18.674;2022-12-07T06:26:47;2.48;91.70
65858;SHT31;53776;47.242;18.674;2022-12-07T06:29:13;2.44;91.58
65858;SHT31;53776;47.242;18.674;2022-12-07T06:31:39;2.43;91.63
65858;SHT31;53776;47.242;18.674;2022-12-07T06:34:14;2.51;91.69
65858;SHT31;53776;47.242;18.674;2022-12-07T06:36:40;2.61;91.54
65858;SHT31;53776;47.242;18.674;2022-12-07T06:39:06;2.53;91.51
65858;SHT31;53776;47.242;18.674;2022-12-07T06:41:33;2.60;91.52
65858;SHT31;53776;47.242;18.674;2022-12-07T06:43:58;2.54;91.59
65858;SHT31;53776;47.242;18.674;2022-12-07T06:46:24;2.44;91.81
65858;SHT31;53776;47.242;18.674;2022-12-07T06:48:49;2.38;92.08
65858;SHT31;53776;47.242;18.674;2022-12-07T06:51:15;2.36;92.18
65858;SHT31;53776;47.242;18.674;2022-12-07T06:53:41;2.32;92.23
65858;SHT31;53776;47.242;18.674;2022-12-07T06:56:07;2.50;92.10
65858;SHT31;53776;47.242;18.674;2022-12-07T06:58:32;2.47;92.08
65858;SHT31;53776;47.242;18.674;2022-12-07T07:00:58;2.53;92.09
65858;SHT31;53776;47.242;18.674;2022-12-07T07:03:23;2.57;92.14
65858;SHT31;53776;47.242;18.674;2022-12-07T07:05:48;2.54;92.06
65858;SHT31;53776;47.242;18.674;2022-12-07T07:08:14;2.62;92.25
65858;SHT31;53776;47.242;18.674;2022-12-07T07:10:40;2.62;92.14
65858;SHT31;53776;47.242;18.674;2022-12-07T07:13:06;2.58;92.14
65858;SHT31;53776;47.242;18.674;2022-12-07T07:15:32;2.61;92.31
65858;SHT31;53776;47.242;18.674;2022-12-07T07:17:58;2.65;92.38
65858;SHT31;53776;47.242;18.674;2022-12-07T07:20:24;2.62;92.47
65858;SHT31;53776;47.242;18.674;2022-12-07T07:22:49;2.62;92.47
65858;SHT31;53776;47.242;18.674;2022-12-07T07:25:15;2.67;92.61
65858;SHT31;53776;47.242;18.674;2022-12-07T07:27:41;2.68;92.60
65858;SHT31;53776;47.242;18.674;2022-12-07T07:30:07;2.73;92.53
65858;SHT31;53776;47.242;18.674;2022-12-07T07:32:32;2.80;92.54
65858;SHT31;53776;47.242;18.674;2022-12-07T07:34:58;2.83;92.42
65858;SHT31;53776;47.242;18.674;2022-12-07T07:37:23;2.96;92.28
65858;SHT31;53776;47.242;18.674;2022-12-07T07:39:49;2.88;92.32
65858;SHT31;53776;47.242;18.674;2022-12-07T07:42:14;2.94;92.30
65858;SHT31;53776;47.242;18.674;2022-12-07T07:44:40;2.98;92.30
65858;SHT31;53776;47.242;18.674;2022-12-07T07:47:05;3.02;92.09
65858;SHT31;53776;47.242;18.674;2022-12-07T07:49:30;3.02;92.06
65858;SHT31;53776;47.242;18.674;2022-12-07T07:51:56;3.06;91.81
65858;SHT31;53776;47.242;18.674;2022-12-07T07:54:21;3.22;91.75
65858;SHT31;53776;47.242;18.674;2022-12-07T07:56:47;3.26;91.57
65858;SHT31;53776;47.242;18.674;2022-12-07T07:59:12;3.46;91.41
65858;SHT31;53776;47.242;18.674;2022-12-07T08:01:37;3.49;91.23
65858;SHT31;53776;47.242;18.674;2022-12-07T08:04:03;3.44;91.12
65858;SHT31;53776;47.242;18.674;2022-12-07T08:06:28;3.46;91.15
65858;SHT31;53776;47.242;18.674;2022-12-07T08:08:54;3.43;90.93
65858;SHT31;53776;47.242;18.674;2022-12-07T08:11:19;3.42;91.09
65858;SHT31;53776;47.242;18.674;2022-12-07T08:13:45;3.37;91.17
65858;SHT31;53776;47.242;18.674;2022-12-07T08:16:14;3.46;91.13
65858;SHT31;53776;47.242;18.674;2022-12-07T08:18:41;3.49;91.14
65858;SHT31;53776;47.242;18.674;2022-12-07T08:21:10;3.49;90.98
65858;SHT31;53776;47.242;18.674;2022-12-07T08:23:36;3.39;91.25
65858;SHT31;53776;47.242;18.674;2022-12-07T08:26:03;3.39;91.31
65858;SHT31;53776;47.242;18.674;2022-12-07T08:28:29;3.32;91.46
65858;SHT31;53776;47.242;18.674;2022-12-07T08:31:04;3.43;91.30
65858;SHT31;53776;47.242;18.674;2022-12-07T08:33:30;3.50;91.05
65858;SHT31;53776;47.242;18.674;2022-12-07T08:36:03;3.52;91.09
65858;SHT31;53776;47.242;18.674;2022-12-07T08:38:29;3.74;91.03
65858;SHT31;53776;47.242;18.674;2022-12-07T08:40:55;3.84;90.86
65858;SHT31;53776;47.242;18.674;2022-12-07T08:43:21;3.78;90.78
65858;SHT31;53776;47.242;18.674;2022-12-07T08:48:34;3.88;90.66
65858;SHT31;53776;47.242;18.674;2022-12-07T08:51:01;3.99;90.59
65858;SHT31;53776;47.242;18.674;2022-12-07T08:53:28;3.90;90.53
65858;SHT31;53776;47.242;18.674;2022-12-07T08:55:55;3.95;90.60
65858;SHT31;53776;47.242;18.674;2022-12-07T08:58:21;4.11;90.44
65858;SHT31;53776;47.242;18.674;2022-12-07T09:00:47;3.98;90.34
65858;SHT31;53776;47.242;18.674;2022-12-07T09:03:12;4.11;90.43
65858;SHT31;53776;47.242;18.674;2022-12-07T09:05:37;4.06;90.38
65858;SHT31;53776;47.242;18.674;2022-12-07T09:08:03;4.22;90.38
65858;SHT31;53776;47.242;18.674;2022-12-07T09:10:29;4.26;90.33
65858;SHT31;53776;47.242;18.674;2022-12-07T09:12:54;4.28;90.26
65858;SHT31;53776;47.242;18.674;2022-12-07T09:15:20;4.31;90.17
65858;SHT31;53776;47.242;18.674;2022-12-07T09:17:45;4.46;90.17
65858;SHT31;53776;47.242;18.674;2022-12-07T09:20:11;4.43;90.02
65858;SHT31;53776;47.242;18.674;2022-12-07T09:22:37;4.69;90.11
65858;SHT31;53776;47.242;18.674;2022-12-07T09:25:04;4.57;89.95
65858;SHT31;53776;47.242;18.674;2022-12-07T09:27:31;4.64;90.07
65858;SHT31;53776;47.242;18.674;2022-12-07T09:29:56;4.67;89.95
65858;SHT31;53776;47.242;18.674;2022-12-07T09:32:22;4.62;90.04
65858;SHT31;53776;47.242;18.674;2022-12-07T09:34:48;4.60;90.15
65858;SHT31;53776;47.242;18.674;2022-12-07T09:37:13;4.64;89.91
65858;SHT31;53776;47.242;18.674;2022-12-07T09:39:39;4.73;89.96
65858;SHT31;53776;47.242;18.674;2022-12-07T09:42:05;4.91;89.94
65858;SHT31;53776;47.242;18.674;2022-12-07T09:44:32;4.92;89.67
65858;SHT31;53776;47.242;18.674;2022-12-07T09:46:58;4.95;89.73
65858;SHT31;53776;47.242;18.674;2022-12-07T09:49:25;4.95;89.78
65858;SHT31;53776;47.242;18.674;2022-12-07T09:54:41;5.28;89.47
65858;SHT31;53776;47.242;18.674;2022-12-07T09:57:11;5.39;89.24
65858;SHT31;53776;47.242;18.674;2022-12-07T09:59:38;5.38;88.90
65858;SHT31;53776;47.242;18.674;2022-12-07T10:02:36;5.38;88.97
65858;SHT31;53776;47.242;18.674;2022-12-07T10:05:06;5.45;88.83
65858;SHT31;53776;47.242;18.674;2022-12-07T10:07:32;5.52;88.92
65858;SHT31;53776;47.242;18.674;2022-12-07T10:09:58;5.56;88.93
65858;SHT31;53776;47.242;18.674;2022-12-07T10:12:23;5.65;88.70
65858;SHT31;53776;47.242;18.674;2022-12-07T10:14:59;5.80;88.36
65858;SHT31;53776;47.242;18.674;2022-12-07T10:22:36;5.97;88.13
65858;SHT31;53776;47.242;18.674;2022-12-07T10:25:18;6.06;88.05
65858;SHT31;53776;47.242;18.674;2022-12-07T10:27:43;6.01;88.05
65858;SHT31;53776;47.242;18.674;2022-12-07T10:30:22;6.11;87.87
65858;SHT31;53776;47.242;18.674;2022-12-07T10:32:47;5.97;87.79
65858;SHT31;53776;47.242;18.674;2022-12-07T10:35:26;6.07;87.87
65858;SHT31;53776;47.242;18.674;2022-12-07T10:37:52;6.22;87.69
65858;SHT31;53776;47.242;18.674;2022-12-07T10:40:35;6.24;87.39
65858;SHT31;53776;47.242;18.674;2022-12-07T10:48:27;6.55;87.04
65858;SHT31;53776;47.242;18.674;2022-12-07T10:53:47;6.68;86.61
65858;SHT31;53776;47.242;18.674;2022-12-07T11:04:34;6.89;85.57
65858;SHT31;53776;47.242;18.674;2022-12-07T11:07:38;6.85;85.44
65858;SHT31;53776;47.242;18.674;2022-12-07T11:10:14;6.89;86.09
65858;SHT31;53776;47.242;18.674;2022-12-07T11:15:31;6.86;85.10
65858;SHT31;53776;47.242;18.674;2022-12-07T11:20:45;6.96;84.26
65858;SHT31;53776;47.242;18.674;2022-12-07T11:26:07;7.13;83.93
65858;SHT31;53776;47.242;18.674;2022-12-07T11:33:45;7.23;83.48
65858;SHT31;53776;47.242;18.674;2022-12-07T11:36:47;7.41;83.63
65858;SHT31;53776;47.242;18.674;2022-12-07T11:39:26;7.41;83.33
65858;SHT31;53776;47.242;18.674;2022-12-07T11:42:01;7.58;82.87
65858;SHT31;53776;47.242;18.674;2022-12-07T11:44:50;7.43;82.91
65858;SHT31;53776;47.242;18.674;2022-12-07T11:47:28;7.47;83.29
65858;SHT31;53776;47.242;18.674;2022-12-07T11:50:05;7.50;83.05
65858;SHT31;53776;47.242;18.674;2022-12-07T11:52:48;7.66;83.43
65858;SHT31;53776;47.242;18.674;2022-12-07T11:55:42;7.61;83.09
65858;SHT31;53776;47.242;18.674;2022-12-07T12:03:45;7.75;82.87
65858;SHT31;53776;47.242;18.674;2022-12-07T12:06:11;7.76;82.80
65858;SHT31;53776;47.242;18.674;2022-12-07T12:08:41;7.82;82.92
65858;SHT31;53776;47.242;18.674;2022-12-07T12:21:46;8.03;78.66
65858;SHT31;53776;47.242;18.674;2022-12-07T12:24:20;8.02;78.93
65858;SHT31;53776;47.242;18.674;2022-12-07T12:27:23;8.04;78.59
65858;SHT31;53776;47.242;18.674;2022-12-07T12:29:53;8.16;78.85
65858;SHT31;53776;47.242;18.674;2022-12-07T12:32:41;7.76;79.67
65858;SHT31;53776;47.242;18.674;2022-12-07T12:35:30;7.81;81.06
65858;SHT31;53776;47.242;18.674;2022-12-07T12:39:17;7.72;80.95
65858;SHT31;53776;47.242;18.674;2022-12-07T12:41:52;7.61;81.00
65858;SHT31;53776;47.242;18.674;2022-12-07T12:46:56;7.55;81.81
65858;SHT31;53776;47.242;18.674;2022-12-07T12:52:01;7.56;81.88
65858;SHT31;53776;47.242;18.674;2022-12-07T12:55:01;7.61;81.83
65858;SHT31;53776;47.242;18.674;2022-12-07T12:57:31;7.52;80.93
65858;SHT31;53776;47.242;18.674;2022-12-07T12:59:58;7.52;81.82
65858;SHT31;53776;47.242;18.674;2022-12-07T13:05:14;7.50;82.05
65858;SHT31;53776;47.242;18.674;2022-12-07T13:15:56;7.34;81.88
65858;SHT31;53776;47.242;18.674;2022-12-07T13:18:41;7.30;82.13
65858;SHT31;53776;47.242;18.674;2022-12-07T13:23:38;7.32;82.35
65858;SHT31;53776;47.242;18.674;2022-12-07T13:26:37;7.28;82.52
65858;SHT31;53776;47.242;18.674;2022-12-07T13:31:47;7.13;82.81
65858;SHT31;53776;47.242;18.674;2022-12-07T13:34:34;7.00;83.00
65858;SHT31;53776;47.242;18.674;2022-12-07T13:37:01;6.83;83.43
65858;SHT31;53776;47.242;18.674;2022-12-07T13:39:28;6.83;83.30
65858;SHT31;53776;47.242;18.674;2022-12-07T13:41:55;6.85;83.76
65858;SHT31;53776;47.242;18.674;2022-12-07T13:44:22;6.87;82.68
65858;SHT31;53776;47.242;18.674;2022-12-07T13:49:32;6.85;79.98
65858;SHT31;53776;47.242;18.674;2022-12-07T13:52:14;6.80;80.71
65858;SHT31;53776;47.242;18.674;2022-12-07T13:55:05;6.89;81.22
65858;SHT31;53776;47.242;18.674;2022-12-07T13:57:35;6.85;82.06
65858;SHT31;53776;47.242;18.674;2022-12-07T14:00:03;6.79;81.43
65858;SHT31;53776;47.242;18.674;2022-12-07T14:02:31;6.79;81.43
65858;SHT31;53776;47.242;18.674;2022-12-07T14:05:15;6.64;78.95
65858;SHT31;53776;47.242;18.674;2022-12-07T14:12:56;6.62;74.16
65858;SHT31;53776;47.242;18.674;2022-12-07T14:15:28;6.53;73.87
65858;SHT31;53776;47.242;18.674;2022-12-07T14:17:55;6.58;72.23
65858;SHT31;53776;47.242;18.674;2022-12-07T14:20:35;6.44;71.99
65858;SHT31;53776;47.242;18.674;2022-12-07T14:23:02;6.48;72.08
65858;SHT31;53776;47.242;18.674;2022-12-07T14:25:48;6.42;71.66
65858;SHT31;53776;47.242;18.674;2022-12-07T14:28:28;6.45;71.18
65858;SHT31;53776;47.242;18.674;2022-12-07T14:30:54;6.39;72.47
65858;SHT31;53776;47.242;18.674;2022-12-07T14:33:20;6.35;71.79
65858;SHT31;53776;47.242;18.674;2022-12-07T14:35:46;6.35;72.70
65858;SHT31;53776;47.242;18.674;2022-12-07T14:38:11;6.41;73.71
65858;SHT31;53776;47.242;18.674;2022-12-07T14:40:38;6.39;74.73
65858;SHT31;53776;47.242;18.674;2022-12-07T14:43:12;6.25;73.98
65858;SHT31;53776;47.242;18.674;2022-12-07T14:45:39;6.32;74.24
65858;SHT31;53776;47.242;18.674;2022-12-07T14:48:06;6.31;75.21
65858;SHT31;53776;47.242;18.674;2022-12-07T14:50:37;6.29;75.97
65858;SHT31;53776;47.242;18.674;2022-12-07T14:53:09;6.25;74.44
65858;SHT31;53776;47.242;18.674;2022-12-07T14:55:36;6.18;74.26
65858;SHT31;53776;47.242;18.674;2022-12-07T14:58:01;6.27;74.33
65858;SHT31;53776;47.242;18.674;2022-12-07T15:00:27;6.18;74.91
65858;SHT31;53776;47.242;18.674;2022-12-07T15:02:54;6.17;74.74
65858;SHT31;53776;47.242;18.674;2022-12-07T15:05:20;6.13;74.20
65858;SHT31;53776;47.242;18.674;2022-12-07T15:07:47;6.18;73.11
65858;SHT31;53776;47.242;18.674;2022-12-07T15:10:23;6.17;73.95
65858;SHT31;53776;47.242;18.674;2022-12-07T15:12:49;6.04;73.70
65858;SHT31;53776;47.242;18.674;2022-12-07T15:15:15;5.96;74.04
65858;SHT31;53776;47.242;18.674;2022-12-07T15:17:42;6.04;74.54
65858;SHT31;53776;47.242;18.674;2022-12-07T15:20:12;6.03;76.08
65858;SHT31;53776;47.242;18.674;2022-12-07T15:22:38;5.90;74.97
65858;SHT31;53776;47.242;18.674;2022-12-07T15:25:03;5.94;74.68
65858;SHT31;53776;47.242;18.674;2022-12-07T15:27:31;5.98;74.62
65858;SHT31;53776;47.242;18.674;2022-12-07T15:29:56;5.91;74.79
65858;SHT31;53776;47.242;18.674;2022-12-07T15:32:22;5.89;75.08
65858;SHT31;53776;47.242;18.674;2022-12-07T15:34:48;5.89;75.65
65858;SHT31;53776;47.242;18.674;2022-12-07T15:37:15;5.79;75.55
65858;SHT31;53776;47.242;18.674;2022-12-07T15:39:41;5.83;74.29
65858;SHT31;53776;47.242;18.674;2022-12-07T15:42:06;5.83;74.08
65858;SHT31;53776;47.242;18.674;2022-12-07T15:44:32;5.85;73.84
65858;SHT31;53776;47.242;18.674;2022-12-07T15:47:15;5.83;73.94
65858;SHT31;53776;47.242;18.674;2022-12-07T15:49:42;5.79;74.56
65858;SHT31;53776;47.242;18.674;2022-12-07T15:52:08;5.81;74.36
65858;SHT31;53776;47.242;18.674;2022-12-07T15:54:33;5.71;74.72
65858;SHT31;53776;47.242;18.674;2022-12-07T15:56:59;5.67;75.37
65858;SHT31;53776;47.242;18.674;2022-12-07T15:59:26;5.69;75.09
65858;SHT31;53776;47.242;18.674;2022-12-07T16:01:51;5.62;74.71
65858;SHT31;53776;47.242;18.674;2022-12-07T16:04:17;5.59;74.93
65858;SHT31;53776;47.242;18.674;2022-12-07T16:06:44;5.52;75.38
65858;SHT31;53776;47.242;18.674;2022-12-07T16:09:10;5.49;75.46
65858;SHT31;53776;47.242;18.674;2022-12-07T16:11:35;5.40;76.21
65858;SHT31;53776;47.242;18.674;2022-12-07T16:14:01;5.38;77.31
65858;SHT31;53776;47.242;18.674;2022-12-07T16:16:27;5.31;77.99
65858;SHT31;53776;47.242;18.674;2022-12-07T16:18:53;5.28;78.59
65858;SHT31;53776;47.242;18.674;2022-12-07T16:21:19;5.25;78.77
65858;SHT31;53776;47.242;18.674;2022-12-07T16:23:44;5.22;79.44
65858;SHT31;53776;47.242;18.674;2022-12-07T16:26:13;5.22;79.38
65858;SHT31;53776;47.242;18.674;2022-12-07T16:28:39;5.05;79.74
65858;SHT31;53776;47.242;18.674;2022-12-07T16:31:10;4.98;79.81
65858;SHT31;53776;47.242;18.674;2022-12-07T16:33:37;4.92;79.85
65858;SHT31;53776;47.242;18.674;2022-12-07T16:36:05;4.79;79.93
65858;SHT31;53776;47.242;18.674;2022-12-07T16:38:31;4.73;80.17
65858;SHT31;53776;47.242;18.674;2022-12-07T16:40:57;4.62;80.57
65858;SHT31;53776;47.242;18.674;2022-12-07T16:43:22;4.59;80.71
65858;SHT31;53776;47.242;18.674;2022-12-07T16:45:49;4.50;80.83
65858;SHT31;53776;47.242;18.674;2022-12-07T16:48:15;4.42;81.12
65858;SHT31;53776;47.242;18.674;2022-12-07T16:50:42;4.31;81.42
65858;SHT31;53776;47.242;18.674;2022-12-07T16:53:09;4.18;81.71
65858;SHT31;53776;47.242;18.674;2022-12-07T16:55:39;4.12;81.86
65858;SHT31;53776;47.242;18.674;2022-12-07T16:58:05;4.04;81.99
65858;SHT31;53776;47.242;18.674;2022-12-07T17:00:30;3.95;82.54
65858;SHT31;53776;47.242;18.674;2022-12-07T17:02:56;3.85;82.78
65858;SHT31;53776;47.242;18.674;2022-12-07T17:05:21;3.75;82.81
65858;SHT31;53776;47.242;18.674;2022-12-07T17:07:47;3.62;83.21
65858;SHT31;53776;47.242;18.674;2022-12-07T17:10:12;3.54;83.26
65858;SHT31;53776;47.242;18.674;2022-12-07T17:12:38;3.43;83.50
65858;SHT31;53776;47.242;18.674;2022-12-07T17:15:04;3.23;84.12
65858;SHT31;53776;47.242;18.674;2022-12-07T17:17:42;3.12;85.46
65858;SHT31;53776;47.242;18.674;2022-12-07T17:20:08;3.06;85.99
65858;SHT31;53776;47.242;18.674;2022-12-07T17:22:33;3.01;86.23
65858;SHT31;53776;47.242;18.674;2022-12-07T17:24:59;3.01;86.18
65858;SHT31;53776;47.242;18.674;2022-12-07T17:27:24;2.95;86.36
65858;SHT31;53776;47.242;18.674;2022-12-07T17:29:50;2.89;86.55
65858;SHT31;53776;47.242;18.674;2022-12-07T17:32:15;2.83;86.63
65858;SHT31;53776;47.242;18.674;2022-12-07T17:34:41;2.77;86.74
65858;SHT31;53776;47.242;18.674;2022-12-07T17:37:07;2.65;86.97
65858;SHT31;53776;47.242;18.674;2022-12-07T17:39:32;2.58;87.06
65858;SHT31;53776;47.242;18.674;2022-12-07T17:41:57;2.47;87.46
65858;SHT31;53776;47.242;18.674;2022-12-07T17:44:42;2.40;87.77